Government of Jersey

Home Log in

Channel Islands Terminal Aerodrome Forecasts (TAFs)

Jersey Airport - EGJJ

EGJJ 232254Z 2400/2409 30006KT 9999 FEW020 SCT030 TEMPO 2400/2409 BKN018 PROB30 TEMPO 2407/2409 7000 -SHRA=

Guernsey Airport - EGJB

EGJB 232254Z 2400/2409 31006KT 9999 FEW020 SCT030 TEMPO 2400/2409 BKN018 PROB30 TEMPO 2406/2409 7000 -SHRA=

Alderney Airport - EGJA

EGJA 231404Z 2315/2400 31012KT 9999 FEW008 SCT015 PROB40 TEMPO 2319/2400 BKN012=